Time;durP1;ratioP1;P1;durP2;ratioP2;P2;SDS_P1;SDS_P2;PMS_P1;PMS_P2;Temp;Humidity;BMP_temperature;BMP_pressure;BME280_temperature;BME280_humidity;BME280_pressure;Samples;Min_cycle;Max_cycle;Signal;HPM_P1;HPM_P2
2022/10/25 00:00:52;;;;;;;6.53;2.40;;;14.90;99.90;;;;;;5059023;28;20198;-73
2022/10/25 00:03:20;;;;;;;4.93;2.03;;;14.90;99.90;;;;;;5063791;28;20217;-73
2022/10/25 00:05:47;;;;;;;5.15;1.90;;;14.90;99.90;;;;;;5062537;28;20557;-73
2022/10/25 00:08:14;;;;;;;3.13;1.70;;;14.90;99.90;;;;;;5066015;28;20576;-74
2022/10/25 00:10:43;;;;;;;10.02;2.35;;;14.90;99.90;;;;;;5064488;28;20198;-73
2022/10/25 00:13:13;;;;;;;3.65;1.65;;;14.90;99.90;;;;;;5062031;28;20210;-73
2022/10/25 00:15:41;;;;;;;5.32;1.70;;;14.90;99.90;;;;;;5062291;28;20193;-73
2022/10/25 00:18:08;;;;;;;8.60;2.00;;;14.90;99.90;;;;;;5066311;28;20540;-74
2022/10/25 00:20:37;;;;;;;6.63;2.15;;;14.90;99.90;;;;;;5058701;28;20202;-74
2022/10/25 00:23:04;;;;;;;7.60;2.08;;;14.90;99.90;;;;;;5064514;28;20195;-73
2022/10/25 00:25:31;;;;;;;7.80;2.13;;;14.90;99.90;;;;;;5064013;28;20225;-73
2022/10/25 00:28:00;;;;;;;5.20;1.90;;;14.90;99.90;;;;;;5063031;28;20210;-73
2022/10/25 00:30:27;;;;;;;3.72;1.77;;;14.90;99.90;;;;;;5059952;28;20194;-73
2022/10/25 00:32:55;;;;;;;8.13;2.20;;;14.90;99.90;;;;;;5063767;28;20194;-73
2022/10/25 00:35:22;;;;;;;4.20;1.60;;;14.90;99.90;;;;;;5066864;28;20205;-73
2022/10/25 00:37:50;;;;;;;4.68;1.75;;;14.90;99.90;;;;;;5059212;28;20220;-74
2022/10/25 00:40:18;;;;;;;7.35;1.60;;;14.90;99.90;;;;;;5061671;28;20190;-73
2022/10/25 00:42:46;;;;;;;5.43;1.50;;;14.90;99.90;;;;;;5072130;28;20651;-74
2022/10/25 00:45:21;;;;;;;4.15;1.80;;;14.80;99.90;;;;;;5068629;28;20702;-73
2022/10/25 00:47:54;;;;;;;8.45;2.10;;;14.80;99.90;;;;;;5064045;28;20232;-73
2022/10/25 00:50:29;;;;;;;5.80;1.88;;;14.80;99.90;;;;;;5060814;28;20197;-74
2022/10/25 00:52:59;;;;;;;3.72;1.63;;;14.80;99.90;;;;;;5055652;28;20227;-73
2022/10/25 00:55:28;;;;;;;8.57;1.75;;;14.80;99.90;;;;;;5064775;28;20201;-74
2022/10/25 00:57:59;;;;;;;3.55;1.35;;;14.80;99.90;;;;;;5062319;28;20233;-73
2022/10/25 01:00:28;;;;;;;8.20;2.15;;;14.80;99.90;;;;;;5062585;28;20213;-73
2022/10/25 01:02:55;;;;;;;5.30;1.77;;;14.80;99.90;;;;;;5058819;28;20208;-73
2022/10/25 01:05:23;;;;;;;4.93;1.55;;;14.90;99.90;;;;;;5066893;28;20222;-73
2022/10/25 01:07:52;;;;;;;4.28;1.75;;;14.90;99.90;;;;;;5063706;28;20221;-74
2022/10/25 01:10:20;;;;;;;7.93;1.77;;;14.90;99.90;;;;;;5061321;28;20198;-74
2022/10/25 01:12:47;;;;;;;5.88;1.77;;;14.90;99.90;;;;;;5059116;28;20198;-74
2022/10/25 01:15:15;;;;;;;6.45;1.70;;;14.80;99.90;;;;;;5059841;28;20701;-73
2022/10/25 01:17:53;;;;;;;7.00;1.83;;;14.80;99.90;;;;;;5059625;28;20210;-74
2022/10/25 01:20:54;;;;;;;6.45;1.83;;;14.90;99.90;;;;;;5065985;28;20204;-74
2022/10/25 01:23:42;;;;;;;4.47;1.58;;;14.80;99.90;;;;;;5059991;28;20201;-74
2022/10/25 01:26:39;;;;;;;4.30;1.63;;;14.80;99.90;;;;;;5064509;28;20658;-74
2022/10/25 01:29:25;;;;;;;7.78;1.38;;;14.80;99.90;;;;;;5065284;28;20194;-74
2022/10/25 01:32:00;;;;;;;6.70;1.75;;;14.80;99.90;;;;;;5056580;28;20207;-74
2022/10/25 01:34:32;;;;;;;7.20;1.70;;;14.90;99.90;;;;;;5061554;28;20239;-74
2022/10/25 01:37:06;;;;;;;3.70;1.73;;;14.80;99.90;;;;;;5063546;28;20221;-74
2022/10/25 01:39:40;;;;;;;3.50;1.63;;;14.90;99.90;;;;;;5061428;28;20189;-74
2022/10/25 01:42:14;;;;;;;5.03;1.80;;;14.80;99.90;;;;;;5058853;28;20216;-74
2022/10/25 01:44:49;;;;;;;4.90;1.60;;;14.90;99.90;;;;;;5065008;28;20202;-74
2022/10/25 01:47:23;;;;;;;7.22;2.28;;;14.90;99.90;;;;;;5052695;28;20233;-74
2022/10/25 01:49:57;;;;;;;5.88;1.80;;;14.80;99.90;;;;;;5063247;28;20690;-74
2022/10/25 01:52:26;;;;;;;4.72;1.80;;;14.80;99.90;;;;;;5056790;28;20194;-73
2022/10/25 01:54:53;;;;;;;10.15;2.35;;;14.80;99.90;;;;;;5059773;28;20205;-73
2022/10/25 01:57:43;;;;;;;7.38;1.95;;;14.80;99.90;;;;;;5062156;28;20218;-74
2022/10/25 02:00:12;;;;;;;5.85;1.70;;;14.80;99.90;;;;;;5066485;28;20677;-73
2022/10/25 02:03:09;;;;;;;6.07;1.48;;;14.70;99.90;;;;;;5062039;28;20208;-74
2022/10/25 02:05:48;;;;;;;5.80;1.70;;;14.70;99.90;;;;;;5060257;28;20201;-74
2022/10/25 02:08:27;;;;;;;6.55;1.77;;;14.70;99.90;;;;;;5059849;28;20225;-73
2022/10/25 02:11:05;;;;;;;4.65;1.60;;;14.80;99.90;;;;;;5058774;28;20691;-73
2022/10/25 02:13:44;;;;;;;6.05;1.73;;;14.70;99.90;;;;;;5053602;28;20208;-73
2022/10/25 02:16:15;;;;;;;5.22;1.52;;;14.70;99.90;;;;;;5061520;28;20200;-74
2022/10/25 02:18:48;;;;;;;6.40;2.03;;;14.80;99.90;;;;;;5060143;28;20193;-74
2022/10/25 02:21:18;;;;;;;5.95;2.10;;;14.80;99.90;;;;;;5062916;28;20229;-73
2022/10/25 02:23:47;;;;;;;6.50;2.33;;;14.80;99.90;;;;;;5056982;28;20206;-74
2022/10/25 02:26:16;;;;;;;5.38;1.67;;;14.80;99.90;;;;;;5062261;28;20209;-74
2022/10/25 02:28:45;;;;;;;3.55;1.48;;;14.70;99.90;;;;;;5059569;28;20197;-74
2022/10/25 02:31:16;;;;;;;5.97;1.77;;;14.70;99.90;;;;;;5059892;28;20206;-73
2022/10/25 02:33:46;;;;;;;6.82;1.52;;;14.70;99.90;;;;;;5064607;28;20212;-73
2022/10/25 02:36:15;;;;;;;4.93;1.88;;;14.70;99.90;;;;;;5063747;28;20198;-74
2022/10/25 02:38:46;;;;;;;5.72;1.70;;;14.70;99.90;;;;;;5059481;28;20206;-73
2022/10/25 02:41:16;;;;;;;5.78;1.45;;;14.60;99.90;;;;;;5069238;28;20197;-74
2022/10/25 02:43:43;;;;;;;5.28;1.90;;;14.60;99.90;;;;;;5065579;28;20202;-74
2022/10/25 02:46:13;;;;;;;5.63;1.73;;;14.60;99.90;;;;;;5058990;28;20225;-73
2022/10/25 02:48:41;;;;;;;6.15;1.77;;;14.60;99.90;;;;;;5056202;28;20198;-74
2022/10/25 02:51:14;;;;;;;5.88;1.73;;;14.60;99.90;;;;;;5061990;28;20199;-73
2022/10/25 02:53:42;;;;;;;9.02;1.63;;;14.60;99.90;;;;;;5061338;28;20197;-73
2022/10/25 02:56:12;;;;;;;9.20;1.70;;;14.60;99.90;;;;;;5065076;28;20198;-74
2022/10/25 02:58:41;;;;;;;6.30;1.90;;;14.60;99.90;;;;;;5064916;28;20209;-74
2022/10/25 03:01:09;;;;;;;6.43;1.55;;;14.60;99.90;;;;;;5066615;28;20194;-74
2022/10/25 03:03:36;;;;;;;4.68;1.50;;;14.60;99.90;;;;;;5068427;28;20216;-74
2022/10/25 03:06:04;;;;;;;3.47;1.45;;;14.60;99.90;;;;;;5071886;28;20216;-73
2022/10/25 03:08:33;;;;;;;8.95;2.33;;;14.60;99.90;;;;;;5063947;28;20201;-73
2022/10/25 03:11:00;;;;;;;6.50;1.50;;;14.70;99.90;;;;;;5065039;28;20659;-73
2022/10/25 03:13:28;;;;;;;9.40;2.35;;;14.70;99.90;;;;;;5061755;28;20193;-73
2022/10/25 03:15:55;;;;;;;4.35;1.60;;;14.70;99.90;;;;;;5060324;28;20193;-73
2022/10/25 03:18:23;;;;;;;10.02;2.38;;;14.70;99.90;;;;;;5064345;28;20226;-74
2022/10/25 03:20:50;;;;;;;6.97;1.52;;;14.70;99.90;;;;;;5075135;28;20208;-74
2022/10/25 03:23:18;;;;;;;5.75;1.90;;;14.60;99.90;;;;;;5067048;28;20205;-74
2022/10/25 03:25:47;;;;;;;6.22;1.67;;;14.70;99.90;;;;;;5060136;28;20674;-74
2022/10/25 03:28:14;;;;;;;7.97;1.98;;;14.60;99.90;;;;;;5058593;28;20218;-73
2022/10/25 03:30:43;;;;;;;5.97;2.05;;;14.70;99.90;;;;;;5060750;28;20198;-73
2022/10/25 03:33:10;;;;;;;8.10;2.13;;;14.70;99.90;;;;;;5062466;28;20208;-73
2022/10/25 03:35:37;;;;;;;4.68;1.65;;;14.70;99.90;;;;;;5071350;28;20204;-73
2022/10/25 03:38:05;;;;;;;5.50;1.60;;;14.70;99.90;;;;;;5063386;28;20217;-74
2022/10/25 03:40:32;;;;;;;10.80;1.85;;;14.70;99.90;;;;;;5071722;28;20198;-74
2022/10/25 03:43:01;;;;;;;6.47;1.90;;;14.70;99.90;;;;;;5059413;28;20285;-74
2022/10/25 03:45:28;;;;;;;4.72;2.00;;;14.70;99.90;;;;;;5064073;28;20210;-73
2022/10/25 03:47:56;;;;;;;4.93;1.60;;;14.70;99.90;;;;;;5066780;28;20590;-73
2022/10/25 03:50:23;;;;;;;7.70;1.98;;;14.70;99.90;;;;;;5066074;28;20200;-74
2022/10/25 03:52:51;;;;;;;5.32;1.80;;;14.80;99.90;;;;;;5066622;28;20197;-74
2022/10/25 03:55:18;;;;;;;6.18;1.83;;;14.70;99.90;;;;;;5070075;28;20231;-73
2022/10/25 03:57:45;;;;;;;6.65;2.00;;;14.70;99.90;;;;;;5058100;28;20222;-73
2022/10/25 04:00:17;;;;;;;4.78;1.90;;;14.80;99.90;;;;;;5070800;28;20198;-73
2022/10/25 04:02:44;;;;;;;3.65;1.73;;;14.70;99.90;;;;;;5068073;28;20220;-74
2022/10/25 04:05:12;;;;;;;7.40;1.63;;;14.70;99.90;;;;;;5069884;28;20201;-74
2022/10/25 04:07:39;;;;;;;6.28;1.75;;;14.70;99.90;;;;;;5063593;28;20229;-74
2022/10/25 04:10:07;;;;;;;3.78;1.70;;;14.70;99.90;;;;;;5064682;28;20208;-73
2022/10/25 04:12:35;;;;;;;5.38;1.80;;;14.70;99.90;;;;;;5065768;28;20211;-74
2022/10/25 04:15:02;;;;;;;4.30;2.00;;;14.70;99.90;;;;;;5065123;28;20577;-73
2022/10/25 04:17:31;;;;;;;4.05;1.80;;;14.70;99.90;;;;;;5065034;28;20210;-74
2022/10/25 04:19:58;;;;;;;5.35;1.95;;;14.60;99.90;;;;;;5062208;28;20222;-74
2022/10/25 04:22:26;;;;;;;5.30;1.40;;;14.60;99.90;;;;;;5066268;28;20197;-74
2022/10/25 04:24:53;;;;;;;5.05;1.67;;;14.60;99.90;;;;;;5069762;28;20201;-73
2022/10/25 04:27:21;;;;;;;5.78;2.00;;;14.60;99.90;;;;;;5069220;28;20218;-74
2022/10/25 04:29:48;;;;;;;3.28;1.58;;;14.60;99.90;;;;;;5064555;28;20193;-73
2022/10/25 04:32:16;;;;;;;6.43;1.90;;;14.60;99.90;;;;;;5070768;28;20204;-74
2022/10/25 04:34:44;;;;;;;9.13;2.47;;;14.60;99.90;;;;;;5065965;28;20202;-73
2022/10/25 04:37:12;;;;;;;5.28;1.90;;;14.60;99.90;;;;;;5067369;28;20590;-74
2022/10/25 04:39:39;;;;;;;7.22;2.40;;;14.60;99.90;;;;;;5064704;28;20205;-73
2022/10/25 04:42:06;;;;;;;6.47;2.22;;;14.60;99.90;;;;;;5059108;28;20201;-74
2022/10/25 04:44:34;;;;;;;4.20;1.73;;;14.50;99.90;;;;;;5067027;28;20557;-73
2022/10/25 04:47:03;;;;;;;5.95;2.30;;;14.60;99.90;;;;;;5067844;28;20214;-74
2022/10/25 04:49:30;;;;;;;6.18;2.03;;;14.60;99.90;;;;;;5065691;28;20197;-73
2022/10/25 04:51:59;;;;;;;4.45;2.08;;;14.50;99.90;;;;;;5063438;28;20659;-74
2022/10/25 04:54:27;;;;;;;4.10;1.80;;;14.50;99.90;;;;;;5072170;28;20667;-73
2022/10/25 04:56:54;;;;;;;2.53;1.58;;;14.60;99.90;;;;;;5066374;28;20221;-74
2022/10/25 04:59:21;;;;;;;5.43;2.55;;;14.60;99.90;;;;;;5063781;28;20194;-74
2022/10/25 05:01:49;;;;;;;9.25;2.38;;;14.50;99.90;;;;;;5068034;28;20198;-73
2022/10/25 05:04:17;;;;;;;6.70;2.50;;;14.50;99.90;;;;;;5062580;28;20206;-74
2022/10/25 05:06:44;;;;;;;7.63;2.20;;;14.60;99.90;;;;;;5062139;28;20217;-74
2022/10/25 05:09:13;;;;;;;4.47;2.17;;;14.50;99.90;;;;;;5059787;28;20213;-74
2022/10/25 05:11:41;;;;;;;5.68;2.00;;;14.50;99.90;;;;;;5055818;28;20202;-74
2022/10/25 05:14:08;;;;;;;7.93;2.58;;;14.60;99.90;;;;;;5061111;28;20208;-74
2022/10/25 05:16:35;;;;;;;9.05;2.50;;;14.50;99.90;;;;;;5058932;28;20212;-74
2022/10/25 05:19:03;;;;;;;8.07;2.40;;;14.50;99.90;;;;;;5068957;28;20686;-74
2022/10/25 05:21:30;;;;;;;6.97;2.25;;;14.50;99.90;;;;;;5069281;28;20205;-74
2022/10/25 05:23:58;;;;;;;6.22;2.47;;;14.50;99.90;;;;;;5066866;28;20198;-74
2022/10/25 05:26:30;;;;;;;7.70;3.17;;;14.50;99.90;;;;;;5066337;28;20221;-74
2022/10/25 05:28:58;;;;;;;6.53;2.33;;;14.50;99.90;;;;;;5064808;28;20198;-74
2022/10/25 05:31:27;;;;;;;8.27;3.45;;;14.50;99.90;;;;;;5060821;28;20213;-74
2022/10/25 05:33:56;;;;;;;7.38;2.50;;;14.50;99.90;;;;;;5069981;28;20205;-73
2022/10/25 05:36:24;;;;;;;5.15;2.38;;;14.50;99.90;;;;;;5067838;28;20205;-74
2022/10/25 05:38:52;;;;;;;5.30;2.45;;;14.50;99.90;;;;;;5060060;28;20209;-74
2022/10/25 05:41:19;;;;;;;7.00;3.40;;;14.50;99.90;;;;;;5061021;28;20197;-74
2022/10/25 05:43:48;;;;;;;5.47;2.65;;;14.50;99.90;;;;;;5059864;28;20205;-74
2022/10/25 05:46:17;;;;;;;5.60;2.47;;;14.50;99.90;;;;;;5062395;28;20221;-74
2022/10/25 05:48:45;;;;;;;7.95;2.95;;;14.50;99.90;;;;;;5069178;28;20194;-74
2022/10/25 05:51:14;;;;;;;4.80;2.45;;;14.50;99.90;;;;;;5066881;28;20202;-74
2022/10/25 05:53:45;;;;;;;5.05;2.03;;;14.50;99.90;;;;;;5055616;28;20198;-74
2022/10/25 05:56:15;;;;;;;6.22;2.80;;;14.50;99.90;;;;;;5056845;28;20198;-73
2022/10/25 05:58:43;;;;;;;6.82;2.70;;;14.50;99.90;;;;;;5053536;28;20197;-73
2022/10/25 06:01:48;;;;;;;4.85;2.63;;;14.50;99.90;;;;;;5061760;28;20202;-75
2022/10/25 06:04:16;;;;;;;6.22;2.55;;;14.50;99.90;;;;;;5055604;28;20205;-74
2022/10/25 06:06:45;;;;;;;7.03;2.80;;;14.50;99.90;;;;;;5062863;28;20226;-74
2022/10/25 06:09:14;;;;;;;7.05;3.08;;;14.40;99.90;;;;;;5055325;28;20217;-75
2022/10/25 06:11:41;;;;;;;5.88;2.70;;;14.40;99.90;;;;;;5071594;28;20189;-75
2022/10/25 06:14:11;;;;;;;8.75;3.13;;;14.40;99.90;;;;;;5063804;28;20653;-76
2022/10/25 06:16:39;;;;;;;10.55;3.58;;;14.40;99.90;;;;;;5066210;28;20209;-74
2022/10/25 06:19:08;;;;;;;6.68;2.60;;;14.40;99.90;;;;;;5058499;28;20203;-74
2022/10/25 06:21:36;;;;;;;9.02;2.83;;;14.40;99.90;;;;;;5062582;28;20182;-74
2022/10/25 06:24:10;;;;;;;6.85;3.33;;;14.40;99.90;;;;;;5060520;28;20201;-74
2022/10/25 06:26:37;;;;;;;7.75;3.22;;;14.40;99.90;;;;;;5058390;28;20263;-74
2022/10/25 06:29:07;;;;;;;5.25;2.90;;;14.30;99.90;;;;;;5059759;28;20197;-74
2022/10/25 06:31:34;;;;;;;5.57;3.05;;;14.40;99.90;;;;;;5056551;28;20194;-75
2022/10/25 06:34:02;;;;;;;7.40;3.38;;;14.40;99.90;;;;;;5063831;28;20212;-74
2022/10/25 06:36:32;;;;;;;10.13;3.30;;;14.40;99.90;;;;;;5060886;28;20260;-74
2022/10/25 06:39:00;;;;;;;6.75;2.85;;;14.30;99.90;;;;;;5056064;28;20198;-75
2022/10/25 06:41:30;;;;;;;8.57;3.45;;;14.30;99.90;;;;;;5052353;28;21047;-73
2022/10/25 06:43:59;;;;;;;8.10;3.53;;;14.40;99.90;;;;;;5053436;28;20660;-74
2022/10/25 06:46:28;;;;;;;6.43;3.40;;;14.40;99.90;;;;;;5053259;28;21122;-75
2022/10/25 06:48:57;;;;;;;6.35;3.50;;;14.30;99.90;;;;;;5047638;28;20687;-74
2022/10/25 06:51:25;;;;;;;9.27;3.15;;;14.40;99.90;;;;;;5055680;28;20570;-75
2022/10/25 06:53:56;;;;;;;6.25;2.97;;;14.40;99.90;;;;;;5065179;28;20558;-75
2022/10/25 06:56:24;;;;;;;7.15;3.17;;;14.40;99.90;;;;;;5064780;28;20201;-75
2022/10/25 06:58:51;;;;;;;5.20;2.65;;;14.30;99.90;;;;;;5065622;28;20181;-75
2022/10/25 07:01:20;;;;;;;7.95;2.78;;;14.40;99.90;;;;;;5056100;28;20580;-74
2022/10/25 07:03:49;;;;;;;8.20;2.88;;;14.30;99.90;;;;;;5065399;28;20189;-74
2022/10/25 07:06:19;;;;;;;7.40;2.80;;;14.30;99.90;;;;;;5071326;28;20204;-75
2022/10/25 07:08:47;;;;;;;7.35;2.85;;;14.40;99.90;;;;;;5062422;28;20214;-75
2022/10/25 07:11:17;;;;;;;7.40;2.55;;;14.40;99.90;;;;;;5059798;28;20197;-73
2022/10/25 07:13:45;;;;;;;11.52;3.78;;;14.40;99.90;;;;;;5063487;28;20197;-74
2022/10/25 07:16:14;;;;;;;7.70;2.97;;;14.40;99.90;;;;;;5076009;28;20213;-74
2022/10/25 07:18:42;;;;;;;8.15;2.60;;;14.40;99.90;;;;;;5063437;28;20191;-74
2022/10/25 07:21:13;;;;;;;10.25;2.72;;;14.50;99.90;;;;;;5065428;28;20202;-75
2022/10/25 07:23:41;;;;;;;8.05;2.97;;;14.40;99.90;;;;;;5072577;28;20205;-75
2022/10/25 07:26:10;;;;;;;5.10;2.75;;;14.50;99.90;;;;;;5062806;28;20198;-75
2022/10/25 07:28:39;;;;;;;10.00;2.85;;;14.40;99.90;;;;;;5069630;28;20579;-74
2022/10/25 07:31:07;;;;;;;6.88;3.28;;;14.50;99.90;;;;;;5059408;28;20583;-74
2022/10/25 07:33:34;;;;;;;6.68;2.45;;;14.50;99.90;;;;;;5067246;28;20186;-74
2022/10/25 07:36:01;;;;;;;8.60;2.60;;;14.50;99.90;;;;;;5062244;28;20197;-74
2022/10/25 07:38:29;;;;;;;7.75;2.78;;;14.50;99.90;;;;;;5065562;28;20217;-74
2022/10/25 07:40:57;;;;;;;8.38;2.92;;;14.60;99.90;;;;;;5066346;28;20210;-74
2022/10/25 07:43:25;;;;;;;8.20;2.70;;;14.60;99.90;;;;;;5065357;28;20206;-75
2022/10/25 07:45:54;;;;;;;6.35;2.60;;;14.60;99.90;;;;;;5057722;28;20209;-75
2022/10/25 07:48:25;;;;;;;7.45;2.83;;;14.60;99.90;;;;;;5064716;28;20233;-74
2022/10/25 07:50:53;;;;;;;7.57;2.47;;;14.60;99.90;;;;;;5063878;28;20198;-75
2022/10/25 07:53:20;;;;;;;5.95;2.60;;;14.60;99.90;;;;;;5062136;28;20197;-75
2022/10/25 07:55:51;;;;;;;4.82;2.70;;;14.70;99.90;;;;;;5056728;28;20205;-75
2022/10/25 07:58:18;;;;;;;5.93;3.10;;;14.70;99.90;;;;;;5071174;28;20218;-75
2022/10/25 08:00:46;;;;;;;9.30;2.70;;;14.70;99.90;;;;;;5064696;28;20205;-75
2022/10/25 08:03:17;;;;;;;12.77;3.10;;;14.70;99.90;;;;;;5065129;28;20205;-74
2022/10/25 08:05:45;;;;;;;4.90;2.70;;;14.70;99.90;;;;;;5055117;28;20198;-73
2022/10/25 08:08:12;;;;;;;8.13;3.35;;;14.70;99.90;;;;;;5052616;28;20241;-74
2022/10/25 08:10:42;;;;;;;8.70;4.95;;;14.70;99.90;;;;;;5051017;28;20198;-74
2022/10/25 08:13:10;;;;;;;5.53;3.30;;;14.80;99.90;;;;;;5058759;28;20217;-75
2022/10/25 08:15:39;;;;;;;6.15;3.22;;;14.80;99.90;;;;;;5060284;28;20190;-74
2022/10/25 08:18:09;;;;;;;7.35;3.53;;;14.80;99.90;;;;;;5050313;28;20218;-74
2022/10/25 08:20:38;;;;;;;9.90;4.18;;;14.80;99.90;;;;;;5059403;28;20221;-75
2022/10/25 08:23:05;;;;;;;6.40;3.13;;;14.80;99.90;;;;;;5059580;28;20209;-75
2022/10/25 08:25:35;;;;;;;7.57;3.30;;;14.80;99.90;;;;;;5066073;28;20668;-75
2022/10/25 08:28:02;;;;;;;5.15;3.13;;;14.80;99.90;;;;;;5055077;28;20226;-75
2022/10/25 08:30:30;;;;;;;7.82;2.95;;;14.80;99.90;;;;;;5057893;28;20552;-75
2022/10/25 08:32:57;;;;;;;5.82;2.75;;;14.80;99.90;;;;;;5057664;28;20198;-75
2022/10/25 08:35:25;;;;;;;5.47;2.70;;;14.80;99.90;;;;;;5065179;28;20206;-75
2022/10/25 08:37:54;;;;;;;6.60;2.60;;;14.80;99.90;;;;;;5056581;28;20663;-75
2022/10/25 08:40:26;;;;;;;8.18;2.78;;;14.80;99.90;;;;;;5059749;28;20206;-76
2022/10/25 08:43:07;;;;;;;6.05;2.42;;;14.80;99.90;;;;;;5067004;28;20206;-75
2022/10/25 08:45:40;;;;;;;6.07;2.85;;;14.90;99.90;;;;;;5079821;28;20205;-75
2022/10/25 08:48:15;;;;;;;8.75;4.03;;;14.90;99.90;;;;;;5063857;28;20210;-75
2022/10/25 08:50:46;;;;;;;8.85;4.35;;;14.90;99.90;;;;;;5067018;28;20189;-74
2022/10/25 08:53:22;;;;;;;6.50;2.90;;;15.00;99.90;;;;;;5067621;28;20193;-75
2022/10/25 08:55:58;;;;;;;6.00;2.72;;;14.90;99.90;;;;;;5066212;28;20666;-75
2022/10/25 08:58:29;;;;;;;6.50;2.50;;;14.90;99.90;;;;;;5061913;28;20694;-74
2022/10/25 09:01:00;;;;;;;10.57;2.72;;;15.00;99.90;;;;;;5060367;28;20199;-74
2022/10/25 09:03:34;;;;;;;4.97;2.83;;;15.20;99.90;;;;;;5072195;28;20197;-74
2022/10/25 09:06:20;;;;;;;10.50;5.43;;;15.20;99.90;;;;;;5071018;28;20548;-74
2022/10/25 09:08:59;;;;;;;5.32;3.85;;;15.50;99.90;;;;;;5056300;28;20214;-74
2022/10/25 09:11:40;;;;;;;7.32;3.83;;;15.30;99.90;;;;;;5067243;28;20194;-74
2022/10/25 09:14:18;;;;;;;5.65;3.55;;;15.20;99.90;;;;;;5061351;28;20209;-75
2022/10/25 09:16:50;;;;;;;7.78;3.70;;;15.10;99.90;;;;;;5060645;28;20216;-76
2022/10/25 09:19:25;;;;;;;8.23;3.17;;;15.10;99.90;;;;;;5072756;28;20210;-75
2022/10/25 09:21:58;;;;;;;4.70;2.90;;;15.10;99.90;;;;;;5055961;28;20189;-76
2022/10/25 09:24:33;;;;;;;7.72;3.08;;;15.20;99.90;;;;;;5055789;28;20321;-76
2022/10/25 09:27:06;;;;;;;9.07;3.20;;;15.20;99.90;;;;;;5049984;28;20217;-76
2022/10/25 09:29:37;;;;;;;7.43;3.17;;;15.20;99.90;;;;;;5063548;28;20216;-75
2022/10/25 09:32:17;;;;;;;7.70;3.50;;;15.30;99.90;;;;;;5054916;28;20193;-77
2022/10/25 09:34:45;;;;;;;5.32;3.00;;;15.50;99.90;;;;;;5065248;28;20197;-76
2022/10/25 09:37:17;;;;;;;6.45;2.65;;;15.40;99.90;;;;;;5059653;28;20230;-75
2022/10/25 09:39:50;;;;;;;8.70;2.90;;;15.40;99.90;;;;;;5063582;28;20200;-75
2022/10/25 09:42:23;;;;;;;5.72;3.10;;;15.40;99.90;;;;;;5064967;28;20194;-76
2022/10/25 09:44:54;;;;;;;6.53;3.10;;;15.40;99.90;;;;;;5064711;28;20205;-75
2022/10/25 09:47:30;;;;;;;7.97;2.97;;;15.40;99.90;;;;;;5061847;28;20213;-76
2022/10/25 09:50:01;;;;;;;5.43;2.90;;;15.50;99.90;;;;;;5065736;28;20249;-76
2022/10/25 09:52:37;;;;;;;5.40;2.60;;;15.50;99.90;;;;;;5060665;28;20197;-76
2022/10/25 09:55:27;;;;;;;8.80;3.00;;;15.50;99.90;;;;;;5065753;28;20193;-75
2022/10/25 09:57:54;;;;;;;7.75;3.65;;;15.60;99.90;;;;;;5056299;28;20217;-74
2022/10/25 10:00:22;;;;;;;7.05;3.20;;;15.50;99.90;;;;;;5064916;28;20209;-75
2022/10/25 10:02:49;;;;;;;4.45;2.75;;;15.60;99.90;;;;;;5059162;28;20205;-75
2022/10/25 10:05:18;;;;;;;5.78;2.72;;;15.60;99.90;;;;;;5061374;28;20659;-75
2022/10/25 10:07:48;;;;;;;8.93;2.70;;;15.60;99.90;;;;;;5053407;28;20233;-76
2022/10/25 10:10:23;;;;;;;6.60;3.13;;;15.60;99.90;;;;;;5054195;28;20213;-75
2022/10/25 10:13:01;;;;;;;8.55;3.58;;;15.60;99.90;;;;;;5060040;28;20679;-75
2022/10/25 10:15:33;;;;;;;7.10;3.22;;;15.60;99.90;;;;;;5061141;28;20194;-75
2022/10/25 10:18:29;;;;;;;5.93;2.65;;;15.60;99.90;;;;;;5066427;28;20228;-74
2022/10/25 10:21:03;;;;;;;4.78;2.50;;;15.50;99.90;;;;;;5062576;28;20194;-76
2022/10/25 10:23:45;;;;;;;6.15;2.38;;;15.40;99.90;;;;;;5071151;28;20204;-76
2022/10/25 10:26:20;;;;;;;11.15;2.92;;;15.40;99.90;;;;;;5065653;28;20203;-75
2022/10/25 10:28:50;;;;;;;5.63;2.30;;;15.30;99.90;;;;;;5066008;28;20212;-76
2022/10/25 10:31:19;;;;;;;5.22;2.10;;;15.50;99.90;;;;;;5064970;28;20205;-75
2022/10/25 10:33:52;;;;;;;5.45;2.30;;;15.50;99.90;;;;;;5072314;28;20213;-75
2022/10/25 10:36:23;;;;;;;3.80;1.83;;;15.50;99.90;;;;;;5061347;28;20228;-76
2022/10/25 10:38:51;;;;;;;8.63;2.55;;;15.60;99.90;;;;;;5065104;28;20198;-75
2022/10/25 10:41:24;;;;;;;5.38;2.30;;;15.60;99.90;;;;;;5061768;28;20264;-75
2022/10/25 10:44:06;;;;;;;4.25;2.50;;;15.70;99.90;;;;;;5062667;28;20217;-75
2022/10/25 10:46:34;;;;;;;6.32;2.42;;;15.70;99.90;;;;;;5065763;28;20217;-75
2022/10/25 10:49:02;;;;;;;4.78;2.13;;;15.70;99.90;;;;;;5074103;28;20279;-75
2022/10/25 10:51:39;;;;;;;5.45;2.20;;;15.70;99.90;;;;;;5067019;28;20190;-75
2022/10/25 10:54:24;;;;;;;4.15;2.20;;;15.80;99.90;;;;;;5064775;28;20205;-76
2022/10/25 10:57:01;;;;;;;6.82;2.10;;;15.80;99.90;;;;;;5064536;28;20222;-75
2022/10/25 10:59:36;;;;;;;7.38;2.15;;;16.00;99.90;;;;;;5074068;28;20185;-76
2022/10/25 11:02:27;;;;;;;5.75;2.30;;;16.40;99.90;;;;;;5066800;28;20181;-75
2022/10/25 11:05:02;;;;;;;5.25;2.13;;;16.60;99.90;;;;;;5076315;28;20193;-75
2022/10/25 11:07:33;;;;;;;3.25;1.75;;;16.70;99.90;;;;;;5068926;28;20226;-75
2022/10/25 11:10:28;;;;;;;4.80;1.95;;;16.80;99.90;;;;;;5057989;28;20213;-75
2022/10/25 11:13:11;;;;;;;6.53;1.90;;;16.80;99.90;;;;;;5067937;28;20197;-75
2022/10/25 11:16:12;;;;;;;2.58;1.95;;;17.00;99.90;;;;;;5062123;28;20561;-75
2022/10/25 11:18:49;;;;;;;7.25;1.88;;;16.80;99.90;;;;;;5034077;28;20201;-76
2022/10/25 11:21:45;;;;;;;5.72;1.88;;;16.60;99.90;;;;;;5070632;28;20655;-75
2022/10/25 11:24:24;;;;;;;7.97;2.17;;;16.50;99.90;;;;;;5073083;28;20196;-75
2022/10/25 11:26:57;;;;;;;8.35;2.00;;;16.40;99.90;;;;;;5062391;28;20217;-75
2022/10/25 11:29:42;;;;;;;4.40;2.33;;;16.60;99.90;;;;;;5066952;28;20578;-76
2022/10/25 11:32:49;;;;;;;2.88;1.67;;;16.50;99.90;;;;;;5072218;28;20206;-75
2022/10/25 11:35:37;;;;;;;3.83;1.95;;;16.50;99.90;;;;;;5035449;28;20210;-75
2022/10/25 11:38:19;;;;;;;7.82;1.80;;;16.40;99.90;;;;;;5065014;28;20229;-74
2022/10/25 11:41:00;;;;;;;7.20;1.30;;;16.50;99.90;;;;;;5059681;28;20992;-76
2022/10/25 11:43:56;;;;;;;5.43;1.75;;;16.60;99.90;;;;;;5067514;28;20201;-75
2022/10/25 11:46:33;;;;;;;6.43;2.00;;;16.60;99.90;;;;;;5060683;28;20194;-75
2022/10/25 11:49:33;;;;;;;4.03;1.75;;;16.70;99.90;;;;;;5061129;28;20194;-76
2022/10/25 11:52:21;;;;;;;3.88;1.80;;;16.90;99.90;;;;;;5064077;28;20201;-75
2022/10/25 11:54:55;;;;;;;4.88;2.17;;;16.80;99.90;;;;;;5061905;28;20198;-75
2022/10/25 11:57:35;;;;;;;6.85;2.33;;;16.80;99.90;;;;;;5063368;28;20224;-75
2022/10/25 12:00:11;;;;;;;2.58;1.60;;;16.70;99.90;;;;;;5072305;28;20193;-75
2022/10/25 12:03:06;;;;;;;4.45;1.60;;;16.70;99.90;;;;;;5070716;28;20197;-75
2022/10/25 12:05:42;;;;;;;3.17;1.70;;;16.80;99.90;;;;;;5063292;28;20200;-75
2022/10/25 12:08:22;;;;;;;8.07;1.92;;;16.80;99.90;;;;;;5060369;28;20224;-76
2022/10/25 12:10:55;;;;;;;3.88;1.40;;;16.90;99.90;;;;;;5064139;28;20214;-75
2022/10/25 12:13:28;;;;;;;4.65;1.63;;;17.00;99.90;;;;;;5064764;28;20193;-75
2022/10/25 12:15:58;;;;;;;4.15;1.60;;;17.10;99.90;;;;;;5081861;28;20206;-75
2022/10/25 12:18:34;;;;;;;3.35;1.30;;;17.00;99.90;;;;;;5069145;28;20218;-75
2022/10/25 12:21:03;;;;;;;4.28;1.58;;;16.80;99.90;;;;;;5082580;28;20650;-76
2022/10/25 12:23:39;;;;;;;2.60;1.40;;;16.80;99.90;;;;;;5095013;28;20193;-75
2022/10/25 12:26:10;;;;;;;2.75;1.48;;;16.80;99.90;;;;;;5075462;28;20197;-75
2022/10/25 12:28:44;;;;;;;3.00;1.10;;;16.80;99.90;;;;;;5066974;28;20647;-75
2022/10/25 12:31:16;;;;;;;2.67;1.17;;;16.80;99.90;;;;;;5073117;28;20224;-75
2022/10/25 12:33:51;;;;;;;2.95;1.25;;;16.70;99.90;;;;;;5074456;28;20185;-75
2022/10/25 12:36:26;;;;;;;2.20;1.20;;;16.70;99.90;;;;;;5073666;28;20204;-75
2022/10/25 12:38:58;;;;;;;3.97;1.50;;;16.80;99.90;;;;;;5070172;28;20549;-76
2022/10/25 12:41:28;;;;;;;3.70;1.60;;;16.80;99.90;;;;;;5073422;28;20559;-75
2022/10/25 12:44:09;;;;;;;7.22;1.50;;;17.10;99.90;;;;;;5057793;28;20568;-75
2022/10/25 12:47:06;;;;;;;2.38;1.50;;;17.40;99.90;;;;;;5054005;28;20229;-75
2022/10/25 12:49:56;;;;;;;2.05;1.13;;;17.80;99.90;;;;;;5057094;28;20197;-75
2022/10/25 12:52:31;;;;;;;2.63;1.25;;;18.00;99.90;;;;;;5073057;28;20201;-75
2022/10/25 12:55:31;;;;;;;2.55;1.40;;;17.80;99.90;;;;;;5073300;28;20666;-75
2022/10/25 12:58:23;;;;;;;2.28;1.20;;;17.70;99.90;;;;;;5039936;28;20237;-75
2022/10/25 13:01:12;;;;;;;3.55;1.17;;;17.70;99.90;;;;;;5047620;28;20197;-75
2022/10/25 13:04:06;;;;;;;4.68;1.45;;;17.50;99.90;;;;;;5066780;28;20205;-75
2022/10/25 13:06:38;;;;;;;3.05;1.13;;;17.40;99.90;;;;;;5069437;28;20229;-74
2022/10/25 13:09:08;;;;;;;1.35;0.75;;;17.80;99.90;;;;;;5067491;28;20206;-77
2022/10/25 13:11:42;;;;;;;4.78;1.20;;;17.70;99.90;;;;;;5065125;28;20702;-78